Time;durP1;ratioP1;P1;durP2;ratioP2;P2;SDS_P1;SDS_P2;PMS_P1;PMS_P2;Temp;Humidity;BMP_temperature;BMP_pressure;BME280_temperature;BME280_humidity;BME280_pressure;Samples;Min_cycle;Max_cycle;Signal;HPM_P1;HPM_P2
2021/10/23 00:00:48;;;;;;;3.92;1.50;;;8.20;99.90;;;;;;1977948;71;21532;-72
2021/10/23 00:03:14;;;;;;;4.28;2.10;;;8.30;99.90;;;;;;1981274;70;21106;-71
2021/10/23 00:05:40;;;;;;;12.28;1.72;;;8.30;99.90;;;;;;1981869;70;21050;-72
2021/10/23 00:08:06;;;;;;;4.75;1.57;;;8.30;99.90;;;;;;1993949;70;21058;-72
2021/10/23 00:10:32;;;;;;;3.60;1.92;;;8.40;99.90;;;;;;1993257;71;21081;-72
2021/10/23 00:12:58;;;;;;;5.25;2.47;;;8.30;99.90;;;;;;1989716;71;21046;-72
2021/10/23 00:15:24;;;;;;;6.15;1.85;;;8.40;99.90;;;;;;2005647;71;21173;-72
2021/10/23 00:17:51;;;;;;;8.15;2.00;;;8.30;99.90;;;;;;1990084;70;21042;-72
2021/10/23 00:20:17;;;;;;;4.20;1.82;;;8.30;99.90;;;;;;1986752;70;21050;-71
2021/10/23 00:22:43;;;;;;;5.85;2.17;;;8.30;99.90;;;;;;1992032;70;21131;-70
2021/10/23 00:25:09;;;;;;;4.75;1.80;;;8.20;99.90;;;;;;2006670;70;21023;-71
2021/10/23 00:27:35;;;;;;;9.60;2.08;;;8.20;99.90;;;;;;1996175;70;21399;-70
2021/10/23 00:30:01;;;;;;;5.05;2.00;;;8.30;99.90;;;;;;2010813;70;21173;-71
2021/10/23 00:32:27;;;;;;;7.30;1.85;;;8.20;99.90;;;;;;1991920;70;21046;-71
2021/10/23 00:34:54;;;;;;;6.65;1.90;;;8.20;99.90;;;;;;1978496;70;21161;-71
2021/10/23 00:37:20;;;;;;;3.92;1.80;;;8.30;99.90;;;;;;2004886;70;21233;-71
2021/10/23 00:39:46;;;;;;;4.25;1.62;;;8.40;99.90;;;;;;1995448;70;21133;-71
2021/10/23 00:42:12;;;;;;;4.55;2.00;;;8.20;99.90;;;;;;2004471;71;21015;-72
2021/10/23 00:44:38;;;;;;;6.42;1.72;;;8.30;99.90;;;;;;1999717;71;21132;-72
2021/10/23 00:47:04;;;;;;;4.30;1.75;;;8.20;99.90;;;;;;1987910;71;21237;-72
2021/10/23 00:49:30;;;;;;;5.10;1.62;;;8.10;99.90;;;;;;2006834;70;21112;-71
2021/10/23 00:51:57;;;;;;;3.47;1.50;;;8.10;99.90;;;;;;1973483;71;21207;-72
2021/10/23 00:54:24;;;;;;;7.40;1.65;;;8.00;99.90;;;;;;1980346;70;21062;-72
2021/10/23 00:56:50;;;;;;;3.65;1.60;;;8.10;99.90;;;;;;2003580;71;21051;-71
2021/10/23 00:59:16;;;;;;;3.98;1.67;;;8.10;99.90;;;;;;1999943;70;21219;-72
2021/10/23 01:01:42;;;;;;;8.25;2.15;;;8.10;99.90;;;;;;2005572;71;21125;-72
2021/10/23 01:04:08;;;;;;;4.45;1.72;;;8.10;99.90;;;;;;2002725;71;21042;-72
2021/10/23 01:06:34;;;;;;;4.08;1.50;;;8.10;99.90;;;;;;1995563;70;21463;-72
2021/10/23 01:09:01;;;;;;;7.33;2.20;;;8.10;99.90;;;;;;2022504;71;21047;-72
2021/10/23 01:11:27;;;;;;;3.83;1.95;;;8.20;99.90;;;;;;2003005;70;21482;-71
2021/10/23 01:13:53;;;;;;;4.12;1.62;;;8.20;99.90;;;;;;2017946;71;21120;-72
2021/10/23 01:16:19;;;;;;;6.08;1.47;;;8.20;99.90;;;;;;1992081;70;21067;-71
2021/10/23 01:18:45;;;;;;;7.90;2.37;;;8.20;99.90;;;;;;1979183;70;21051;-72
2021/10/23 01:21:11;;;;;;;2.92;1.52;;;8.10;99.90;;;;;;1993619;71;21152;-72
2021/10/23 01:23:37;;;;;;;3.20;1.67;;;8.10;99.90;;;;;;2011876;71;21046;-72
2021/10/23 01:26:04;;;;;;;7.40;2.42;;;8.20;99.90;;;;;;2010932;71;21062;-72
2021/10/23 01:28:30;;;;;;;3.27;1.82;;;8.20;99.90;;;;;;2019430;70;21062;-72
2021/10/23 01:30:56;;;;;;;8.28;2.60;;;8.20;99.90;;;;;;1984873;70;21415;-71
2021/10/23 01:33:22;;;;;;;5.87;2.02;;;8.20;99.90;;;;;;2002170;71;21660;-72
2021/10/23 01:35:48;;;;;;;5.12;2.00;;;8.20;99.90;;;;;;2001315;71;21440;-72
2021/10/23 01:38:14;;;;;;;5.28;1.62;;;8.20;99.90;;;;;;2000805;70;21548;-72
2021/10/23 01:40:40;;;;;;;4.22;1.65;;;8.10;99.90;;;;;;2000582;70;21107;-72
2021/10/23 01:43:06;;;;;;;7.80;2.52;;;8.10;99.90;;;;;;2015455;70;21059;-71
2021/10/23 01:45:33;;;;;;;6.20;1.92;;;8.10;99.90;;;;;;2008707;71;21121;-72
2021/10/23 01:47:59;;;;;;;4.10;2.00;;;8.00;99.90;;;;;;1986443;70;21434;-72
2021/10/23 01:50:25;;;;;;;6.87;1.90;;;8.00;99.90;;;;;;1988396;71;21393;-71
2021/10/23 01:52:51;;;;;;;4.00;2.10;;;7.90;99.90;;;;;;2013054;70;21055;-72
2021/10/23 01:55:17;;;;;;;5.03;1.80;;;8.00;99.90;;;;;;2013632;71;21128;-72
2021/10/23 01:57:44;;;;;;;11.22;1.95;;;8.10;99.90;;;;;;2005943;70;21137;-72
2021/10/23 02:00:10;;;;;;;5.00;2.00;;;7.90;99.90;;;;;;1996007;70;21108;-72
2021/10/23 02:02:36;;;;;;;5.65;1.87;;;7.90;99.90;;;;;;1985385;70;21147;-72
2021/10/23 02:05:02;;;;;;;3.92;1.67;;;7.90;99.90;;;;;;2004696;71;21050;-72
2021/10/23 02:07:28;;;;;;;3.52;1.80;;;7.90;99.90;;;;;;1992285;70;21023;-72
2021/10/23 02:09:54;;;;;;;4.78;1.80;;;7.90;99.90;;;;;;2012834;70;21483;-72
2021/10/23 02:12:20;;;;;;;4.55;1.70;;;7.90;99.90;;;;;;1988293;70;21497;-72
2021/10/23 02:14:47;;;;;;;7.10;1.80;;;8.00;99.90;;;;;;1996131;70;21447;-72
2021/10/23 02:17:13;;;;;;;9.73;1.92;;;8.00;99.90;;;;;;2011895;70;21055;-72
2021/10/23 02:19:39;;;;;;;4.65;1.85;;;8.00;99.90;;;;;;2008268;71;21101;-71
2021/10/23 02:22:05;;;;;;;2.85;1.30;;;7.90;99.90;;;;;;2001787;70;21024;-72
2021/10/23 02:24:31;;;;;;;8.15;1.90;;;7.80;99.90;;;;;;1981721;70;21155;-72
2021/10/23 02:26:57;;;;;;;5.50;1.65;;;7.80;99.90;;;;;;2006932;71;21120;-71
2021/10/23 02:29:23;;;;;;;4.83;1.60;;;7.70;99.90;;;;;;2001611;70;21136;-72
2021/10/23 02:31:50;;;;;;;8.15;1.85;;;7.60;99.90;;;;;;1983169;71;21112;-72
2021/10/23 02:34:16;;;;;;;5.10;2.10;;;7.50;99.90;;;;;;2022652;71;21528;-72
2021/10/23 02:36:42;;;;;;;5.50;1.70;;;7.50;99.90;;;;;;1998282;70;21462;-72
2021/10/23 02:39:08;;;;;;;5.97;2.02;;;7.50;99.90;;;;;;1981581;70;21023;-72
2021/10/23 02:41:35;;;;;;;5.83;1.95;;;7.40;99.90;;;;;;1999844;71;22568;-71
2021/10/23 02:44:01;;;;;;;7.20;1.75;;;7.30;99.90;;;;;;1987541;71;21192;-72
2021/10/23 02:46:27;;;;;;;3.67;1.70;;;7.30;99.90;;;;;;1992045;71;21160;-72
2021/10/23 02:48:53;;;;;;;4.45;1.52;;;7.30;99.90;;;;;;2003987;70;21062;-72
2021/10/23 02:51:19;;;;;;;2.95;1.52;;;7.30;99.90;;;;;;1993165;70;21046;-72
2021/10/23 02:53:45;;;;;;;5.70;1.98;;;7.30;99.90;;;;;;2003230;70;21123;-72
2021/10/23 02:56:11;;;;;;;6.75;1.90;;;7.30;99.90;;;;;;2000446;70;21128;-72
2021/10/23 02:58:37;;;;;;;5.92;1.80;;;7.30;99.90;;;;;;1999374;70;21120;-71
2021/10/23 03:01:03;;;;;;;4.78;2.00;;;7.30;99.90;;;;;;2000170;70;21241;-72
2021/10/23 03:03:30;;;;;;;5.80;1.70;;;7.30;99.90;;;;;;1989797;71;21140;-72
2021/10/23 03:05:56;;;;;;;2.35;1.47;;;7.30;99.90;;;;;;1988663;70;21038;-71
2021/10/23 03:08:22;;;;;;;4.78;1.80;;;7.30;99.90;;;;;;1986859;70;21054;-72
2021/10/23 03:10:48;;;;;;;4.40;1.52;;;7.30;99.90;;;;;;1987767;71;21088;-72
2021/10/23 03:13:17;;;;;;;4.00;1.92;;;7.40;99.90;;;;;;1990335;70;21159;-71
2021/10/23 03:15:42;;;;;;;8.35;2.17;;;7.40;99.90;;;;;;1993238;70;21426;-72
2021/10/23 03:18:08;;;;;;;7.45;2.08;;;7.30;99.90;;;;;;1973742;70;21458;-72
2021/10/23 03:20:34;;;;;;;7.80;2.08;;;7.30;99.90;;;;;;1976729;70;21097;-72
2021/10/23 03:23:00;;;;;;;5.20;2.00;;;7.40;99.90;;;;;;1985488;70;21023;-72
2021/10/23 03:25:26;;;;;;;5.62;2.08;;;7.50;99.90;;;;;;2006285;70;21124;-72
2021/10/23 03:27:53;;;;;;;3.70;1.77;;;7.50;99.90;;;;;;1997541;71;21050;-72
2021/10/23 03:30:19;;;;;;;3.95;1.60;;;7.50;99.90;;;;;;2010523;71;21152;-72
2021/10/23 03:32:45;;;;;;;5.70;2.12;;;7.50;99.90;;;;;;1984492;70;21159;-72
2021/10/23 03:35:11;;;;;;;4.55;1.77;;;7.50;99.90;;;;;;1981441;70;21472;-71
2021/10/23 03:37:38;;;;;;;3.52;1.50;;;7.50;99.90;;;;;;1992968;71;22934;-71
2021/10/23 03:40:04;;;;;;;5.17;1.98;;;7.50;99.90;;;;;;1995532;70;21416;-72
2021/10/23 03:42:30;;;;;;;4.92;1.70;;;7.50;99.90;;;;;;1981440;70;21165;-71
2021/10/23 03:44:56;;;;;;;11.55;2.33;;;7.50;99.90;;;;;;1992680;70;21022;-71
2021/10/23 03:47:22;;;;;;;9.08;2.10;;;7.50;99.90;;;;;;1987863;70;21042;-72
2021/10/23 03:49:48;;;;;;;4.08;1.77;;;7.50;99.90;;;;;;1998397;70;21051;-72
2021/10/23 03:52:15;;;;;;;6.28;1.60;;;7.50;99.90;;;;;;1982330;71;21117;-72
2021/10/23 03:54:41;;;;;;;3.98;1.75;;;7.50;99.90;;;;;;2014910;70;21150;-72
2021/10/23 03:57:07;;;;;;;6.03;1.98;;;7.60;99.90;;;;;;2000746;71;21042;-72
2021/10/23 03:59:33;;;;;;;3.62;1.60;;;7.60;99.90;;;;;;1950732;72;21071;-72
2021/10/23 04:02:00;;;;;;;2.95;1.77;;;7.60;99.90;;;;;;1989320;71;21143;-72
2021/10/23 04:04:26;;;;;;;7.45;2.02;;;7.60;99.90;;;;;;1935558;72;21040;-72
2021/10/23 04:06:52;;;;;;;4.62;1.52;;;7.70;99.90;;;;;;1966117;70;21061;-72
2021/10/23 04:09:18;;;;;;;6.65;1.72;;;7.70;99.90;;;;;;1960400;71;21541;-72
2021/10/23 04:11:45;;;;;;;3.55;1.80;;;7.70;99.90;;;;;;1977243;71;21434;-70
2021/10/23 04:14:11;;;;;;;6.20;1.90;;;7.70;99.90;;;;;;2023675;71;21149;-72
2021/10/23 04:16:37;;;;;;;3.52;1.80;;;7.60;99.90;;;;;;1971458;71;21058;-72
2021/10/23 04:19:04;;;;;;;2.85;1.47;;;7.60;99.90;;;;;;1994818;71;21031;-72
2021/10/23 04:21:30;;;;;;;5.42;1.75;;;7.60;99.90;;;;;;2007076;71;21046;-73
2021/10/23 04:23:56;;;;;;;4.80;1.60;;;7.60;99.90;;;;;;1964356;71;21194;-72
2021/10/23 04:26:22;;;;;;;7.35;1.70;;;7.60;99.90;;;;;;2009799;71;21507;-72
2021/10/23 04:28:48;;;;;;;4.62;1.67;;;7.50;99.90;;;;;;1963295;71;21452;-72
2021/10/23 04:31:14;;;;;;;3.80;1.87;;;7.40;99.90;;;;;;1987936;71;21172;-70
2021/10/23 04:33:40;;;;;;;2.47;1.45;;;7.40;99.90;;;;;;1984561;71;21392;-71
2021/10/23 04:36:07;;;;;;;3.52;1.70;;;7.30;99.90;;;;;;1981145;71;21164;-71
2021/10/23 04:38:33;;;;;;;4.72;1.80;;;7.30;99.90;;;;;;1937444;72;21135;-71
2021/10/23 04:40:59;;;;;;;13.90;2.30;;;7.30;99.90;;;;;;2002718;71;21050;-72
2021/10/23 04:43:25;;;;;;;7.28;1.92;;;7.20;99.90;;;;;;2003614;71;21051;-72
2021/10/23 04:45:51;;;;;;;3.45;1.77;;;7.10;99.90;;;;;;2002385;71;21058;-72
2021/10/23 04:48:17;;;;;;;4.22;1.75;;;7.00;99.90;;;;;;1979926;71;21062;-72
2021/10/23 04:50:43;;;;;;;3.80;1.77;;;7.00;99.90;;;;;;1939752;72;21034;-71
2021/10/23 04:53:09;;;;;;;3.75;1.77;;;6.90;99.90;;;;;;1993346;70;21140;-71
2021/10/23 04:55:36;;;;;;;6.25;2.02;;;6.90;99.90;;;;;;1975204;71;21470;-71
2021/10/23 04:58:02;;;;;;;8.50;2.08;;;6.90;99.90;;;;;;1982112;71;21119;-72
2021/10/23 05:00:28;;;;;;;5.35;1.92;;;7.00;99.90;;;;;;1993446;71;21140;-72
2021/10/23 05:02:54;;;;;;;5.37;2.42;;;7.00;99.90;;;;;;1991307;71;21123;-72
2021/10/23 05:05:20;;;;;;;2.55;1.55;;;7.00;99.90;;;;;;2000443;70;21128;-73
2021/10/23 05:07:46;;;;;;;5.22;2.02;;;7.10;99.90;;;;;;2001096;71;21085;-72
2021/10/23 05:10:18;;;;;;;5.87;1.98;;;7.10;99.90;;;;;;1991801;71;21064;-72
2021/10/23 05:12:40;;;;;;;3.45;1.75;;;7.10;99.90;;;;;;1986943;70;21088;-72
2021/10/23 05:15:06;;;;;;;5.33;2.33;;;7.20;99.90;;;;;;2013810;71;21055;-72
2021/10/23 05:17:32;;;;;;;4.97;1.98;;;7.30;99.90;;;;;;2000949;71;21128;-72
2021/10/23 05:19:59;;;;;;;10.78;2.17;;;7.30;99.90;;;;;;2007852;70;21054;-72
2021/10/23 05:22:25;;;;;;;10.43;2.22;;;7.40;99.90;;;;;;1993011;70;21042;-72
2021/10/23 05:24:51;;;;;;;5.62;2.08;;;7.40;99.90;;;;;;1983396;71;21054;-72
2021/10/23 05:27:17;;;;;;;4.87;2.40;;;7.30;99.90;;;;;;1982305;70;21303;-71
2021/10/23 05:29:43;;;;;;;4.15;1.57;;;7.30;99.90;;;;;;2009927;71;21152;-71
2021/10/23 05:32:09;;;;;;;5.00;1.80;;;7.40;99.90;;;;;;1985164;71;21128;-71
2021/10/23 05:34:35;;;;;;;6.53;2.30;;;7.40;99.90;;;;;;1983772;71;21412;-72
2021/10/23 05:37:01;;;;;;;6.00;1.82;;;7.50;99.90;;;;;;1987294;70;21525;-72
2021/10/23 05:39:28;;;;;;;5.75;2.12;;;7.40;99.90;;;;;;1983435;71;21461;-71
2021/10/23 05:41:54;;;;;;;9.53;2.12;;;7.50;99.90;;;;;;1995103;70;21474;-71
2021/10/23 05:44:20;;;;;;;10.68;1.85;;;7.50;99.90;;;;;;1995751;70;21047;-74
2021/10/23 05:46:46;;;;;;;5.92;1.90;;;7.60;99.90;;;;;;1983581;71;21259;-73
2021/10/23 05:49:12;;;;;;;5.45;2.17;;;7.60;99.90;;;;;;1994389;70;21047;-72
2021/10/23 05:51:38;;;;;;;7.95;2.37;;;7.60;99.90;;;;;;2021281;71;21063;-72
2021/10/23 05:54:04;;;;;;;5.15;1.80;;;7.70;99.90;;;;;;2007710;70;21048;-71
2021/10/23 05:56:30;;;;;;;9.43;2.35;;;7.70;99.90;;;;;;2002876;70;21108;-71
2021/10/23 05:59:12;;;;;;;3.40;2.15;;;7.70;99.90;;;;;;2006626;71;21132;-71
2021/10/23 06:01:39;;;;;;;6.67;2.40;;;7.60;99.90;;;;;;2021993;71;21063;-71
2021/10/23 06:04:05;;;;;;;8.18;2.30;;;7.70;99.90;;;;;;2003446;70;21132;-71
2021/10/23 06:06:31;;;;;;;4.33;2.00;;;7.70;99.90;;;;;;1983071;70;21007;-72
2021/10/23 06:08:57;;;;;;;10.13;2.42;;;7.70;99.90;;;;;;1982449;70;21069;-73
2021/10/23 06:11:23;;;;;;;4.50;1.90;;;7.70;99.90;;;;;;2016215;71;21132;-71
2021/10/23 06:13:55;;;;;;;6.53;1.82;;;7.70;99.90;;;;;;2013484;71;21145;-73
2021/10/23 06:16:17;;;;;;;4.70;1.92;;;7.70;99.90;;;;;;1997221;71;21092;-71
2021/10/23 06:18:43;;;;;;;11.15;2.17;;;7.80;99.90;;;;;;2018744;71;21173;-72
2021/10/23 06:21:09;;;;;;;6.40;2.33;;;7.70;99.90;;;;;;1983186;71;21080;-72
2021/10/23 06:23:36;;;;;;;5.08;2.22;;;7.80;99.90;;;;;;2002628;71;21178;-73
2021/10/23 06:26:02;;;;;;;8.58;1.77;;;7.90;99.90;;;;;;1983516;70;21112;-73
2021/10/23 06:28:28;;;;;;;9.75;2.20;;;7.80;99.90;;;;;;1982263;70;21054;-71
2021/10/23 06:30:54;;;;;;;4.97;1.98;;;7.80;99.90;;;;;;1998694;71;21058;-73
2021/10/23 06:33:20;;;;;;;8.78;2.58;;;7.90;99.90;;;;;;1990613;70;21450;-71
2021/10/23 06:35:46;;;;;;;8.18;2.08;;;7.90;99.90;;;;;;2018951;70;21132;-71
2021/10/23 06:38:12;;;;;;;2.30;1.82;;;7.90;99.90;;;;;;1997253;70;21054;-72
2021/10/23 06:40:38;;;;;;;4.30;2.15;;;7.90;99.90;;;;;;1981159;71;21230;-73
2021/10/23 06:43:05;;;;;;;4.08;2.10;;;7.90;99.90;;;;;;2008184;71;21047;-73
2021/10/23 06:45:31;;;;;;;5.35;2.35;;;7.90;99.90;;;;;;1992999;70;21055;-74
2021/10/23 06:47:59;;;;;;;6.80;2.45;;;8.10;99.90;;;;;;2007033;71;21247;-74
2021/10/23 06:50:25;;;;;;;7.25;2.83;;;8.10;99.90;;;;;;1986390;70;21099;-74
2021/10/23 06:52:51;;;;;;;7.10;2.60;;;8.00;99.90;;;;;;1953385;71;21026;-74
2021/10/23 06:55:17;;;;;;;4.58;2.05;;;8.10;99.90;;;;;;2018127;71;21452;-74
2021/10/23 06:57:46;;;;;;;15.88;2.62;;;8.10;99.90;;;;;;2006197;71;21451;-74
2021/10/23 07:00:11;;;;;;;6.08;2.17;;;8.10;99.90;;;;;;1999531;70;21057;-73
2021/10/23 07:02:37;;;;;;;3.33;2.30;;;8.40;99.90;;;;;;1992383;71;21135;-74
2021/10/23 07:05:04;;;;;;;12.23;2.50;;;8.50;99.90;;;;;;2017173;71;21058;-73
2021/10/23 07:07:30;;;;;;;9.85;2.30;;;8.50;99.90;;;;;;1996752;71;21050;-73
2021/10/23 07:09:56;;;;;;;6.08;2.05;;;8.50;99.90;;;;;;1985584;70;21069;-73
2021/10/23 07:12:22;;;;;;;4.08;2.37;;;8.50;99.90;;;;;;1987608;70;21176;-73
2021/10/23 07:14:50;;;;;;;5.92;2.30;;;8.50;99.90;;;;;;1955647;71;21057;-73
2021/10/23 07:17:16;;;;;;;4.65;1.85;;;8.60;99.90;;;;;;1956189;71;21090;-72
2021/10/23 07:19:42;;;;;;;6.10;1.87;;;8.60;99.90;;;;;;1997458;71;21199;-74
2021/10/23 07:22:08;;;;;;;6.62;2.22;;;8.60;99.90;;;;;;2007411;71;21152;-73
2021/10/23 07:24:34;;;;;;;5.72;2.20;;;8.80;99.90;;;;;;2012299;70;21055;-72
2021/10/23 07:27:00;;;;;;;6.47;2.50;;;8.80;99.90;;;;;;1993993;70;21123;-72
2021/10/23 07:29:26;;;;;;;4.37;2.17;;;8.80;99.90;;;;;;1999545;71;21118;-73
2021/10/23 07:31:53;;;;;;;4.15;2.52;;;8.80;99.90;;;;;;1998106;70;21127;-72
2021/10/23 07:34:19;;;;;;;4.50;2.27;;;8.80;99.90;;;;;;2007201;71;21300;-72
2021/10/23 07:36:45;;;;;;;7.30;2.35;;;8.90;99.90;;;;;;2004808;71;21023;-70
2021/10/23 07:39:11;;;;;;;5.90;2.10;;;9.00;99.90;;;;;;1953137;71;21054;-73
2021/10/23 07:41:38;;;;;;;7.75;2.27;;;9.10;99.90;;;;;;2007494;71;21124;-72
2021/10/23 07:44:05;;;;;;;6.05;2.08;;;9.10;99.90;;;;;;2004136;70;21127;-72
2021/10/23 07:46:31;;;;;;;6.28;2.30;;;9.20;99.90;;;;;;1992714;70;21126;-73
2021/10/23 07:48:57;;;;;;;5.08;1.95;;;9.10;99.90;;;;;;1995946;70;21174;-71
2021/10/23 07:51:23;;;;;;;5.58;2.20;;;9.20;99.90;;;;;;1985458;70;21023;-70
2021/10/23 07:53:49;;;;;;;15.72;3.33;;;9.40;99.90;;;;;;2000991;70;21450;-72
2021/10/23 07:56:16;;;;;;;6.85;2.60;;;9.30;99.90;;;;;;2008571;70;21055;-74
2021/10/23 07:58:42;;;;;;;9.45;2.10;;;9.30;99.90;;;;;;2014193;70;21011;-74
2021/10/23 08:01:08;;;;;;;3.95;1.77;;;9.30;99.90;;;;;;1995540;71;21066;-74
2021/10/23 08:03:34;;;;;;;5.92;2.25;;;9.30;99.90;;;;;;2001702;70;21157;-74
2021/10/23 08:06:03;;;;;;;8.58;1.98;;;9.50;99.90;;;;;;1988598;70;21066;-77
2021/10/23 08:08:28;;;;;;;8.45;2.37;;;9.60;99.90;;;;;;2008716;70;21227;-74
2021/10/23 08:10:54;;;;;;;10.68;2.33;;;9.60;99.90;;;;;;1968263;71;21061;-74
2021/10/23 08:13:20;;;;;;;5.87;2.35;;;9.60;99.90;;;;;;2006763;70;21027;-72
2021/10/23 08:15:47;;;;;;;6.95;2.37;;;9.80;99.90;;;;;;1985114;71;21118;-73
2021/10/23 08:18:13;;;;;;;6.95;2.35;;;9.70;99.90;;;;;;1979641;71;21066;-71
2021/10/23 08:20:40;;;;;;;7.22;2.47;;;9.80;99.90;;;;;;1989877;71;21128;-71
2021/10/23 08:23:06;;;;;;;5.03;2.00;;;9.80;99.90;;;;;;1964917;71;21536;-71
2021/10/23 08:25:34;;;;;;;7.37;2.55;;;10.20;99.90;;;;;;1991584;71;21452;-73
2021/10/23 08:28:00;;;;;;;5.55;2.00;;;10.30;99.90;;;;;;1960003;71;21106;-72
2021/10/23 08:30:26;;;;;;;6.15;2.05;;;10.80;99.90;;;;;;2026187;71;21051;-72
2021/10/23 08:32:52;;;;;;;4.60;2.45;;;11.10;99.90;;;;;;2003485;71;21062;-71
2021/10/23 08:35:18;;;;;;;5.85;2.17;;;11.10;99.90;;;;;;2023525;71;21177;-72
2021/10/23 08:37:44;;;;;;;7.17;2.42;;;11.00;99.90;;;;;;2015183;70;21123;-72
2021/10/23 08:40:10;;;;;;;8.10;2.70;;;11.20;99.90;;;;;;2017652;71;21019;-72
2021/10/23 08:42:37;;;;;;;6.90;2.40;;;11.60;99.90;;;;;;2017323;71;21058;-73
2021/10/23 08:45:03;;;;;;;5.90;2.40;;;12.10;99.90;;;;;;1998601;71;21473;-73
2021/10/23 08:47:29;;;;;;;7.42;2.30;;;12.00;99.90;;;;;;1999877;71;21462;-73
2021/10/23 08:49:55;;;;;;;12.33;2.92;;;11.40;99.90;;;;;;2000321;71;21423;-73
2021/10/23 08:52:21;;;;;;;6.35;1.90;;;11.50;99.90;;;;;;1969319;71;21213;-73
2021/10/23 08:54:48;;;;;;;9.58;2.08;;;12.10;99.90;;;;;;1998674;71;21184;-73
2021/10/23 08:57:14;;;;;;;7.60;2.40;;;12.80;99.90;;;;;;1987958;71;21069;-72
2021/10/23 08:59:40;;;;;;;13.45;2.40;;;12.60;99.90;;;;;;1998207;70;21043;-74
2021/10/23 09:02:07;;;;;;;12.93;2.20;;;13.00;99.90;;;;;;2008088;70;21426;-74
2021/10/23 09:04:33;;;;;;;12.33;2.52;;;13.00;99.90;;;;;;1993498;70;21050;-73
2021/10/23 09:06:59;;;;;;;7.17;2.25;;;13.60;99.90;;;;;;1989680;70;21107;-73
2021/10/23 09:09:25;;;;;;;7.08;1.85;;;13.90;99.90;;;;;;1995021;70;21551;-72
2021/10/23 09:11:51;;;;;;;6.40;2.27;;;13.50;99.90;;;;;;2016183;70;21129;-72
2021/10/23 09:14:17;;;;;;;4.62;1.70;;;13.80;99.90;;;;;;1996566;70;21124;-73
2021/10/23 09:16:43;;;;;;;15.23;2.50;;;14.40;99.90;;;;;;2004629;70;21054;-72
2021/10/23 09:19:10;;;;;;;5.67;1.82;;;14.50;99.90;;;;;;2013288;70;21054;-73
2021/10/23 09:21:36;;;;;;;6.03;2.45;;;14.20;99.90;;;;;;2011254;70;21014;-72
2021/10/23 09:24:02;;;;;;;5.62;2.25;;;13.90;99.90;;;;;;2019639;70;21046;-73
2021/10/23 09:26:28;;;;;;;7.03;2.15;;;13.90;99.90;;;;;;2016187;71;21136;-73
2021/10/23 09:28:54;;;;;;;6.67;2.37;;;14.00;99.90;;;;;;2023546;71;21270;-73
2021/10/23 09:31:20;;;;;;;5.37;1.92;;;13.00;99.90;;;;;;2011644;70;21015;-73
2021/10/23 09:33:46;;;;;;;4.75;2.40;;;13.30;99.90;;;;;;1994669;71;21061;-73
2021/10/23 09:36:12;;;;;;;4.97;1.75;;;13.50;99.90;;;;;;1996865;71;21379;-72
2021/10/23 09:38:39;;;;;;;5.47;1.82;;;14.20;99.90;;;;;;1949491;72;21531;-74
2021/10/23 09:41:05;;;;;;;7.53;2.45;;;14.90;99.90;;;;;;2002809;71;21117;-73
2021/10/23 09:43:32;;;;;;;3.17;1.67;;;15.20;99.90;;;;;;1994669;70;21015;-73
2021/10/23 09:46:01;;;;;;;9.58;2.27;;;15.20;99.90;;;;;;2022271;70;21144;-72
2021/10/23 09:48:27;;;;;;;3.70;1.55;;;14.80;99.90;;;;;;2008177;71;21122;-73
2021/10/23 09:50:53;;;;;;;3.05;1.70;;;14.90;99.90;;;;;;2022738;70;21055;-73
2021/10/23 09:53:19;;;;;;;8.23;1.87;;;15.50;99.90;;;;;;1989739;71;21070;-73
2021/10/23 09:55:45;;;;;;;9.05;1.77;;;15.50;99.90;;;;;;1952800;72;21067;-73
2021/10/23 09:58:11;;;;;;;6.42;2.30;;;15.40;99.90;;;;;;1993829;70;21124;-72
2021/10/23 10:00:38;;;;;;;5.85;1.92;;;15.20;99.90;;;;;;1996105;70;21062;-73
2021/10/23 10:03:04;;;;;;;5.95;1.50;;;15.20;99.90;;;;;;1967821;72;21118;-73
2021/10/23 10:05:33;;;;;;;2.72;1.32;;;15.70;99.90;;;;;;1992939;70;21062;-73
2021/10/23 10:07:58;;;;;;;6.58;1.32;;;16.10;99.90;;;;;;1972356;71;21053;-73
2021/10/23 10:10:24;;;;;;;6.28;1.60;;;16.40;99.90;;;;;;2004640;70;21059;-71
2021/10/23 10:12:50;;;;;;;5.65;1.67;;;16.60;99.90;;;;;;2005886;70;21216;-73
2021/10/23 10:15:17;;;;;;;3.58;1.30;;;16.60;99.90;;;;;;2002624;71;21128;-73
2021/10/23 10:17:43;;;;;;;22.15;6.90;;;16.60;99.90;;;;;;1995243;71;21046;-73
2021/10/23 10:20:09;;;;;;;3.80;1.60;;;16.40;99.90;;;;;;1997079;71;21055;-73
2021/10/23 10:22:35;;;;;;;5.78;1.77;;;15.60;99.90;;;;;;1997004;71;21054;-72
2021/10/23 10:25:01;;;;;;;7.30;1.77;;;15.40;99.90;;;;;;1998303;71;21098;-72
2021/10/23 10:27:27;;;;;;;6.00;1.92;;;15.20;99.90;;;;;;1969582;71;21026;-74
2021/10/23 10:30:00;;;;;;;4.78;1.65;;;14.60;99.90;;;;;;1985148;70;21043;-74
2021/10/23 10:32:27;;;;;;;3.17;1.50;;;14.00;99.90;;;;;;2006481;70;21279;-74
2021/10/23 10:37:29;;;;;;;3.85;1.80;;;12.90;99.90;;;;;;1941846;72;21095;-74
2021/10/23 10:39:55;;;;;;;4.72;1.55;;;12.60;99.90;;;;;;1980503;71;21529;-73
2021/10/23 10:45:02;;;;;;;5.85;1.72;;;12.70;99.90;;;;;;1969371;71;21184;-71
2021/10/23 10:47:29;;;;;;;4.42;1.87;;;13.00;99.90;;;;;;2014096;71;21062;-71
2021/10/23 10:49:55;;;;;;;4.42;1.85;;;13.70;99.90;;;;;;2000720;71;21046;-70
2021/10/23 10:52:21;;;;;;;11.12;1.80;;;14.60;99.90;;;;;;1945120;72;21058;-70
2021/10/23 10:54:47;;;;;;;4.50;1.37;;;14.80;99.90;;;;;;1994675;70;21280;-72
2021/10/23 10:57:13;;;;;;;2.12;1.27;;;15.60;99.90;;;;;;2008240;71;21059;-71
2021/10/23 10:59:39;;;;;;;2.33;0.75;;;15.80;99.90;;;;;;1980371;70;21031;-71
2021/10/23 11:02:06;;;;;;;3.45;1.00;;;16.60;99.90;;;;;;1957367;71;21065;-70
2021/10/23 11:04:33;;;;;;;2.30;1.00;;;16.70;99.90;;;;;;2018028;70;21067;-73
2021/10/23 11:06:59;;;;;;;3.62;1.37;;;17.40;99.90;;;;;;1918147;72;21078;-70
2021/10/23 11:09:30;;;;;;;2.40;1.30;;;18.30;99.90;;;;;;1999033;71;21140;-72
2021/10/23 11:11:54;;;;;;;3.33;1.42;;;18.10;99.90;;;;;;1928050;73;21480;-72
2021/10/23 11:14:23;;;;;;;11.68;2.10;;;18.00;99.90;;;;;;2007541;71;21136;-71
2021/10/23 11:16:50;;;;;;;4.25;1.70;;;17.30;99.90;;;;;;1924337;71;21158;-71
2021/10/23 11:19:16;;;;;;;4.03;1.85;;;17.10;99.90;;;;;;1979097;71;21187;-72
2021/10/23 11:21:42;;;;;;;4.55;1.70;;;17.00;99.90;;;;;;1963892;71;21462;-71
2021/10/23 11:24:08;;;;;;;3.45;1.72;;;16.60;99.90;;;;;;1936113;72;21125;-70
2021/10/23 11:26:34;;;;;;;4.50;1.85;;;15.70;99.90;;;;;;1974894;70;21043;-72
2021/10/23 11:29:00;;;;;;;6.62;1.80;;;14.80;99.90;;;;;;1983079;70;21132;-72
2021/10/23 11:31:26;;;;;;;5.78;2.15;;;13.90;99.90;;;;;;1939749;72;21078;-74
2021/10/23 11:33:53;;;;;;;4.53;1.70;;;13.70;99.90;;;;;;1969105;70;21203;-73
2021/10/23 11:36:19;;;;;;;2.52;1.30;;;13.60;99.90;;;;;;1994870;70;21136;-74
2021/10/23 11:38:45;;;;;;;6.20;1.70;;;13.50;99.90;;;;;;1998311;70;21440;-73
2021/10/23 11:41:11;;;;;;;3.58;1.85;;;13.30;99.90;;;;;;1997015;71;21548;-74
2021/10/23 11:43:39;;;;;;;6.03;1.40;;;13.40;99.90;;;;;;2007208;70;21474;-74
2021/10/23 11:46:08;;;;;;;3.45;1.42;;;13.40;99.90;;;;;;2003733;71;21066;-74
2021/10/23 11:48:34;;;;;;;1.75;1.12;;;13.40;99.90;;;;;;1923681;72;21139;-73
2021/10/23 11:51:00;;;;;;;2.10;1.22;;;13.20;99.90;;;;;;2012053;71;21139;-73
2021/10/23 11:53:28;;;;;;;4.87;1.47;;;13.20;99.90;;;;;;1990948;70;21054;-72
2021/10/23 11:55:55;;;;;;;2.62;1.10;;;13.80;99.90;;;;;;1946707;73;21198;-72
2021/10/23 11:58:21;;;;;;;2.55;1.22;;;15.20;99.90;;;;;;1977285;71;21030;-72
2021/10/23 12:00:49;;;;;;;3.42;1.47;;;16.60;99.90;;;;;;1956272;71;21066;-73
2021/10/23 12:03:15;;;;;;;2.30;1.70;;;17.60;99.90;;;;;;1973470;71;21136;-72
2021/10/23 12:05:41;;;;;;;1.72;1.30;;;17.30;99.90;;;;;;1984990;71;21086;-72
2021/10/23 12:08:07;;;;;;;5.25;1.67;;;18.20;99.90;;;;;;1981450;70;21479;-71
2021/10/23 12:10:34;;;;;;;3.67;1.35;;;18.50;99.90;;;;;;1979532;71;21466;-71
2021/10/23 12:13:00;;;;;;;5.33;1.70;;;18.70;99.90;;;;;;1980789;70;21938;-71
2021/10/23 12:15:27;;;;;;;3.70;1.47;;;19.00;99.90;;;;;;1970682;71;21650;-70
2021/10/23 12:17:53;;;;;;;3.35;1.40;;;18.20;99.90;;;;;;1967748;71;21036;-70
2021/10/23 12:20:19;;;;;;;5.15;1.57;;;16.70;99.90;;;;;;1973792;70;21127;-72
2021/10/23 12:22:45;;;;;;;2.30;1.30;;;15.90;99.90;;;;;;1973989;71;21058;-71
2021/10/23 12:25:11;;;;;;;6.03;1.05;;;15.50;99.90;;;;;;1965473;70;21066;-71
2021/10/23 12:27:37;;;;;;;3.00;1.10;;;14.70;99.90;;;;;;1978612;70;21214;-71
2021/10/23 12:30:04;;;;;;;1.22;1.02;;;14.20;99.90;;;;;;1967939;71;21066;-72
2021/10/23 12:32:30;;;;;;;5.83;1.50;;;13.80;99.90;;;;;;1972967;71;21455;-70
2021/10/23 12:34:56;;;;;;;8.48;1.40;;;13.60;99.90;;;;;;1981160;71;21062;-70
2021/10/23 12:37:22;;;;;;;4.78;1.87;;;13.60;99.90;;;;;;1955568;71;21057;-70
2021/10/23 12:39:48;;;;;;;2.98;1.77;;;13.60;99.90;;;;;;1975114;70;21140;-71
2021/10/23 12:42:14;;;;;;;4.00;2.00;;;13.70;99.90;;;;;;1974977;70;21139;-71
2021/10/23 12:44:40;;;;;;;5.72;2.10;;;13.80;99.90;;;;;;1984809;71;21156;-71
2021/10/23 12:47:07;;;;;;;3.08;2.08;;;14.00;99.90;;;;;;1971690;71;21295;-71
2021/10/23 12:49:33;;;;;;;5.17;2.67;;;14.30;99.90;;;;;;1979935;71;21433;-71
2021/10/23 12:51:59;;;;;;;5.55;2.67;;;14.30;99.90;;;;;;1977877;70;21136;-71